Time;durP1;ratioP1;P1;durP2;ratioP2;P2;SDS_P1;SDS_P2;PMS_P1;PMS_P2;Temp;Humidity;BMP_temperature;BMP_pressure;BME280_temperature;BME280_humidity;BME280_pressure;Samples;Min_cycle;Max_cycle;Signal;HPM_P1;HPM_P2
2023/05/29 00:03:49;;;;;;;17.42;15.70;;;23.80;67.00;;;;;;4797774;55;21437;-32
2023/05/29 00:08:50;;;;;;;17.92;16.17;;;23.80;67.60;;;;;;4739674;55;21014;-37
2023/05/29 00:13:51;;;;;;;17.20;15.40;;;23.80;67.00;;;;;;4739837;59;21026;-33
2023/05/29 00:18:53;;;;;;;16.37;14.77;;;23.80;67.00;;;;;;4798143;54;22238;-34
2023/05/29 00:23:54;;;;;;;17.17;15.43;;;23.80;67.00;;;;;;4894960;55;21479;-35
2023/05/29 00:28:55;;;;;;;16.52;14.73;;;23.80;66.90;;;;;;4741353;54;21025;-32
2023/05/29 00:33:56;;;;;;;17.10;15.35;;;23.80;67.00;;;;;;4802695;55;21077;-32
2023/05/29 00:38:56;;;;;;;16.85;15.25;;;23.80;67.00;;;;;;4739570;59;21659;-31
2023/05/29 00:43:57;;;;;;;16.25;14.65;;;23.80;67.10;;;;;;4740199;59;21184;-33
2023/05/29 00:49:05;;;;;;;16.98;15.25;;;23.80;67.00;;;;;;4778176;55;21088;-34
2023/05/29 00:54:11;;;;;;;16.65;14.95;;;23.80;67.00;;;;;;4784406;55;21033;-33
2023/05/29 00:59:12;;;;;;;16.07;14.47;;;23.80;67.00;;;;;;4740428;59;21079;-32
2023/05/29 01:04:15;;;;;;;15.38;13.88;;;23.80;67.00;;;;;;4759961;55;21008;-34
2023/05/29 01:09:16;;;;;;;16.17;14.52;;;23.80;67.00;;;;;;4781913;55;21125;-33
2023/05/29 01:14:28;;;;;;;16.20;14.63;;;23.80;67.00;;;;;;4800462;55;21093;-33
2023/05/29 01:22:45;;;;;;;15.45;13.95;;;23.80;67.00;;;;;;4748326;55;21025;-34
2023/05/29 01:27:48;;;;;;;15.13;13.62;;;23.80;67.00;;;;;;4841383;55;21528;-32
2023/05/29 01:32:50;;;;;;;15.20;13.70;;;23.80;67.00;;;;;;4888457;55;21002;-32
2023/05/29 01:37:51;;;;;;;15.57;14.07;;;23.80;67.10;;;;;;4817632;55;21666;-33
2023/05/29 01:42:53;;;;;;;16.17;13.90;;;23.80;67.10;;;;;;4934890;55;21125;-32
2023/05/29 01:47:57;;;;;;;14.52;13.13;;;23.80;67.00;;;;;;4842508;55;21037;-33
2023/05/29 01:52:58;;;;;;;15.35;13.85;;;23.80;67.00;;;;;;4837823;55;21081;-34
2023/05/29 01:58:00;;;;;;;15.40;13.80;;;23.80;67.00;;;;;;4823701;54;21085;-39
2023/05/29 02:03:02;;;;;;;14.68;13.23;;;23.80;67.00;;;;;;4740033;59;21022;-33
2023/05/29 02:08:03;;;;;;;15.20;13.62;;;23.80;67.00;;;;;;4786234;55;21463;-34
2023/05/29 02:13:03;;;;;;;14.27;12.82;;;23.80;67.00;;;;;;4768033;55;21014;-37
2023/05/29 02:18:04;;;;;;;14.77;13.35;;;23.80;67.00;;;;;;4765646;55;21022;-33
2023/05/29 02:23:05;;;;;;;15.07;12.95;;;23.80;67.00;;;;;;4836779;54;21089;-33
2023/05/29 02:28:06;;;;;;;13.75;12.45;;;23.80;67.00;;;;;;4748823;55;21021;-37
2023/05/29 02:33:08;;;;;;;14.60;13.13;;;23.70;67.00;;;;;;4740239;59;21480;-34
2023/05/29 02:38:09;;;;;;;14.65;13.20;;;23.80;67.10;;;;;;4790672;55;21540;-33
2023/05/29 02:43:13;;;;;;;13.45;12.15;;;23.80;67.10;;;;;;4741001;55;22156;-34
2023/05/29 02:48:14;;;;;;;13.40;12.10;;;23.70;66.90;;;;;;4739448;59;21033;-33
2023/05/29 02:53:14;;;;;;;14.07;12.75;;;23.70;66.90;;;;;;4938735;55;21092;-33
2023/05/29 02:58:16;;;;;;;14.18;12.77;;;23.70;67.00;;;;;;4921643;55;20993;-36
2023/05/29 03:03:17;;;;;;;13.43;12.05;;;23.70;67.60;;;;;;4941384;55;21559;-32
2023/05/29 03:08:17;;;;;;;13.62;12.23;;;23.70;67.00;;;;;;4806026;55;21097;-34
2023/05/29 03:13:18;;;;;;;13.65;12.30;;;23.70;67.00;;;;;;4768175;55;21148;-34
2023/05/29 03:18:19;;;;;;;14.13;12.73;;;23.70;67.00;;;;;;4896992;55;21326;-33
2023/05/29 03:23:20;;;;;;;12.60;11.40;;;23.70;67.00;;;;;;4846347;55;21068;-32
2023/05/29 03:28:21;;;;;;;14.55;13.15;;;23.70;67.00;;;;;;4754520;55;21128;-34
2023/05/29 03:33:22;;;;;;;12.57;11.38;;;23.80;67.10;;;;;;4923959;55;21433;-34
2023/05/29 03:38:23;;;;;;;13.20;11.95;;;23.70;67.10;;;;;;4739450;56;21215;-35
2023/05/29 03:43:24;;;;;;;12.43;11.18;;;23.70;67.10;;;;;;4834553;55;21625;-36
2023/05/29 03:48:25;;;;;;;13.32;12.02;;;23.70;67.00;;;;;;4924202;55;21029;-34
2023/05/29 03:53:26;;;;;;;12.77;11.57;;;23.70;67.00;;;;;;4883319;55;21445;-33
2023/05/29 03:58:27;;;;;;;12.75;11.55;;;23.70;67.60;;;;;;4783522;55;21536;-33
2023/05/29 04:03:31;;;;;;;12.07;10.88;;;23.70;66.90;;;;;;4791750;55;21912;-34
2023/05/29 04:08:32;;;;;;;13.38;11.88;;;23.70;66.90;;;;;;5036424;55;21053;-34
2023/05/29 04:13:34;;;;;;;12.73;11.43;;;23.70;66.50;;;;;;4740184;59;21483;-34
2023/05/29 04:18:35;;;;;;;11.27;10.20;;;23.70;66.80;;;;;;4740491;59;21567;-35
2023/05/29 04:23:36;;;;;;;12.07;10.88;;;23.70;66.80;;;;;;4933820;55;21069;-34
2023/05/29 04:28:37;;;;;;;11.77;10.32;;;23.70;66.70;;;;;;4739781;59;21089;-33
2023/05/29 04:33:38;;;;;;;11.77;10.57;;;23.70;67.40;;;;;;4799450;55;21512;-35
2023/05/29 04:38:39;;;;;;;11.93;10.70;;;23.70;66.70;;;;;;4814846;55;21073;-34
2023/05/29 04:43:40;;;;;;;12.93;11.15;;;23.70;66.60;;;;;;4905519;55;21535;-40
2023/05/29 04:48:41;;;;;;;10.68;9.65;;;23.70;66.50;;;;;;4740042;59;21092;-37
2023/05/29 04:53:42;;;;;;;11.05;10.05;;;23.70;66.50;;;;;;4743378;55;21057;-37
2023/05/29 04:58:42;;;;;;;11.80;10.70;;;23.70;66.50;;;;;;4740056;58;21018;-32
2023/05/29 05:03:44;;;;;;;11.12;10.00;;;23.70;66.40;;;;;;4937725;55;21037;-33
2023/05/29 05:08:46;;;;;;;11.70;10.50;;;23.70;66.30;;;;;;4739825;59;21460;-35
2023/05/29 05:13:47;;;;;;;10.88;9.77;;;23.70;66.30;;;;;;4741768;55;21085;-34
2023/05/29 05:18:48;;;;;;;10.48;9.50;;;23.70;66.50;;;;;;4761062;55;21101;-33
2023/05/29 05:23:48;;;;;;;11.55;10.45;;;23.70;66.20;;;;;;4741060;55;21078;-34
2023/05/29 05:28:49;;;;;;;11.50;10.45;;;23.70;66.10;;;;;;4846901;55;21622;-34
2023/05/29 05:33:50;;;;;;;10.93;9.82;;;23.60;66.10;;;;;;4740195;55;21590;-33
2023/05/29 05:38:51;;;;;;;10.65;9.50;;;23.70;66.00;;;;;;4916131;54;21048;-33
2023/05/29 05:43:52;;;;;;;11.27;10.18;;;23.70;66.00;;;;;;4799216;55;21419;-33
2023/05/29 05:48:56;;;;;;;12.10;10.90;;;23.70;65.90;;;;;;4867982;54;21029;-34
2023/05/29 05:53:57;;;;;;;14.35;11.20;;;23.60;65.80;;;;;;4744313;55;22411;-33
2023/05/29 05:58:58;;;;;;;11.15;10.05;;;23.70;65.90;;;;;;4748007;55;21029;-36
2023/05/29 06:03:59;;;;;;;11.57;10.48;;;23.60;65.70;;;;;;4946516;55;21483;-33
2023/05/29 06:09:00;;;;;;;10.85;9.85;;;23.60;65.70;;;;;;4909508;55;21066;-33
2023/05/29 06:14:03;;;;;;;11.43;10.32;;;23.60;65.70;;;;;;4748402;55;21061;-34
2023/05/29 06:19:04;;;;;;;11.77;10.27;;;23.60;65.70;;;;;;4747936;55;21025;-33
2023/05/29 06:24:05;;;;;;;11.12;10.10;;;23.60;65.70;;;;;;4738522;56;20993;-31
2023/05/29 06:29:06;;;;;;;11.68;10.48;;;23.60;65.70;;;;;;4756781;55;21526;-33
2023/05/29 06:34:07;;;;;;;11.50;10.32;;;23.60;65.60;;;;;;4778465;55;21527;-35
2023/05/29 06:39:08;;;;;;;11.77;10.38;;;23.60;65.70;;;;;;4737424;55;21081;-32
2023/05/29 06:44:09;;;;;;;11.10;10.00;;;23.60;65.60;;;;;;4754498;55;21468;-34
2023/05/29 06:49:10;;;;;;;12.77;10.88;;;23.60;65.50;;;;;;4739551;59;21535;-34
2023/05/29 06:54:10;;;;;;;12.23;11.00;;;23.60;65.50;;;;;;4783104;55;21080;-33
2023/05/29 06:59:11;;;;;;;16.08;12.93;;;23.70;66.30;;;;;;4783237;55;21025;-32
2023/05/29 07:04:13;;;;;;;14.35;12.90;;;23.60;65.50;;;;;;4747193;55;21033;-32
2023/05/29 07:09:13;;;;;;;14.20;12.80;;;23.60;65.50;;;;;;4792312;55;21021;-35
2023/05/29 07:14:15;;;;;;;15.35;13.68;;;23.60;65.50;;;;;;4758573;55;21005;-37
2023/05/29 07:19:17;;;;;;;15.95;14.13;;;23.60;65.50;;;;;;4823706;55;21464;-35
2023/05/29 07:24:18;;;;;;;16.20;14.50;;;23.60;65.50;;;;;;4739734;59;21476;-33
2023/05/29 07:29:20;;;;;;;16.42;14.70;;;23.70;65.40;;;;;;4961594;55;21057;-33
2023/05/29 07:34:21;;;;;;;17.27;15.43;;;23.70;65.50;;;;;;4740548;59;21041;-34
2023/05/29 08:21:01;;;;;;;19.12;16.17;;;23.60;65.40;;;;;;4739206;55;21093;-34
2023/05/29 08:26:03;;;;;;;17.35;15.48;;;23.70;66.00;;;;;;4820725;55;21049;-34
2023/05/29 08:31:04;;;;;;;18.48;16.48;;;23.70;65.40;;;;;;4793264;55;21456;-35
2023/05/29 08:36:05;;;;;;;17.58;15.65;;;23.70;65.40;;;;;;4750196;55;21133;-33
2023/05/29 08:41:08;;;;;;;18.23;16.33;;;23.70;65.40;;;;;;4773937;55;21025;-35
2023/05/29 09:04:01;;;;;;;18.00;16.10;;;23.70;65.50;;;;;;4739092;55;21906;-37
2023/05/29 09:09:02;;;;;;;18.77;16.10;;;23.70;65.40;;;;;;4865066;55;21045;-35
2023/05/29 09:14:03;;;;;;;18.00;16.00;;;23.70;65.40;;;;;;4758775;55;21399;-36
2023/05/29 09:19:07;;;;;;;18.80;15.98;;;23.70;65.40;;;;;;4830047;55;21575;-33
2023/05/29 09:24:09;;;;;;;18.50;15.38;;;23.70;65.40;;;;;;4740574;59;21467;-34
2023/05/29 09:29:12;;;;;;;17.15;15.32;;;23.70;65.40;;;;;;4741472;55;21575;-37
2023/05/29 09:34:13;;;;;;;17.85;15.95;;;23.70;65.50;;;;;;4740176;59;21583;-34
2023/05/29 09:39:15;;;;;;;19.30;16.77;;;23.70;65.50;;;;;;4755338;54;21607;-33
2023/05/29 09:44:16;;;;;;;18.20;16.27;;;23.70;65.60;;;;;;4797543;55;21536;-35
2023/05/29 09:49:22;;;;;;;19.15;17.15;;;23.70;65.60;;;;;;4745064;55;21532;-36
2023/05/29 09:54:23;;;;;;;19.17;16.77;;;23.70;65.60;;;;;;4751285;55;21459;-33
2023/05/29 09:59:25;;;;;;;19.27;17.17;;;23.70;65.60;;;;;;4757869;55;21092;-34
2023/05/29 10:04:27;;;;;;;20.45;16.48;;;23.70;65.60;;;;;;4787042;55;21145;-34
2023/05/29 10:09:28;;;;;;;18.00;16.00;;;23.80;65.80;;;;;;4774182;55;21491;-34
2023/05/29 10:14:32;;;;;;;20.25;16.98;;;23.80;66.10;;;;;;4739799;55;21061;-33
2023/05/29 10:19:36;;;;;;;17.52;15.63;;;23.80;66.30;;;;;;4776782;55;21499;-35
2023/05/29 10:24:38;;;;;;;18.33;15.75;;;23.80;66.60;;;;;;4769162;55;21037;-34
2023/05/29 10:29:54;;;;;;;18.27;16.30;;;23.80;66.70;;;;;;4780511;55;21010;-36
2023/05/29 10:35:27;;;;;;;18.12;16.27;;;23.80;67.30;;;;;;4738089;59;21642;-34
2023/05/29 10:40:28;;;;;;;17.23;15.50;;;23.80;66.70;;;;;;4748486;55;21035;-32
2023/05/29 10:46:11;;;;;;;20.40;18.23;;;23.80;66.70;;;;;;4766234;55;21080;-35
2023/05/29 10:51:32;;;;;;;19.33;17.20;;;23.80;66.70;;;;;;4739770;59;21002;-33
2023/05/29 10:56:33;;;;;;;19.42;17.27;;;23.80;66.60;;;;;;4739808;59;21492;-37
2023/05/29 11:01:38;;;;;;;18.17;16.23;;;23.80;66.60;;;;;;4783531;55;21103;-37
2023/05/29 11:06:43;;;;;;;18.77;16.55;;;24.00;67.00;;;;;;4775515;55;21125;-32
2023/05/29 11:11:45;;;;;;;20.08;17.25;;;23.90;67.30;;;;;;4788762;55;21029;-36
2023/05/29 11:16:49;;;;;;;20.70;17.42;;;24.00;67.70;;;;;;4746391;55;21475;-32
2023/05/29 11:22:09;;;;;;;19.70;17.55;;;24.00;68.10;;;;;;4743109;55;21502;-34
2023/05/29 11:27:11;;;;;;;20.58;17.67;;;24.00;68.00;;;;;;4716865;56;21584;-31
2023/05/29 11:32:16;;;;;;;20.25;18.10;;;24.00;68.10;;;;;;4713752;56;21579;-30
2023/05/29 11:37:17;;;;;;;20.62;17.87;;;24.00;68.20;;;;;;4686852;56;21109;-32
2023/05/29 11:42:18;;;;;;;21.15;17.83;;;24.00;68.30;;;;;;4664466;55;21462;-29
2023/05/29 11:47:19;;;;;;;20.23;17.90;;;24.00;68.50;;;;;;4668907;55;20995;-28
2023/05/29 11:52:22;;;;;;;20.95;18.75;;;24.00;68.70;;;;;;4657990;56;21567;-31
2023/05/29 11:57:25;;;;;;;23.00;19.02;;;24.00;68.70;;;;;;4657496;60;21556;-32
2023/05/29 12:02:27;;;;;;;21.77;17.27;;;24.00;69.00;;;;;;4659215;56;21090;-30
2023/05/29 12:07:28;;;;;;;20.65;18.40;;;24.10;69.10;;;;;;4666304;55;21093;-31
2023/05/29 12:12:29;;;;;;;20.50;18.33;;;24.10;69.00;;;;;;4680776;55;21110;-34
2023/05/29 12:17:35;;;;;;;19.85;17.75;;;24.10;69.20;;;;;;4664512;56;21010;-27
2023/05/29 12:22:37;;;;;;;23.10;20.33;;;24.10;69.20;;;;;;4675504;56;21417;-30
2023/05/29 12:27:43;;;;;;;22.55;19.95;;;24.10;69.20;;;;;;4657271;60;21030;-32
2023/05/29 12:32:51;;;;;;;23.02;19.60;;;24.10;69.20;;;;;;4666227;56;21135;-30
2023/05/29 12:38:00;;;;;;;23.60;19.73;;;24.10;69.10;;;;;;4738237;56;21046;-27
2023/05/29 12:43:04;;;;;;;24.58;20.95;;;24.10;69.40;;;;;;4666578;56;21509;-33
2023/05/29 12:48:06;;;;;;;24.30;20.15;;;24.20;69.40;;;;;;4662969;56;21050;-29
2023/05/29 12:53:13;;;;;;;21.23;18.90;;;24.20;69.40;;;;;;4699915;56;21347;-29
2023/05/29 12:58:15;;;;;;;25.25;20.55;;;24.20;69.30;;;;;;4757141;56;21627;-29
2023/05/29 13:03:16;;;;;;;25.55;21.10;;;24.20;69.40;;;;;;4660717;56;22106;-31
2023/05/29 13:08:17;;;;;;;26.87;19.95;;;24.30;69.20;;;;;;4670371;55;21153;-31
2023/05/29 13:13:18;;;;;;;23.10;19.02;;;24.30;69.30;;;;;;4714566;55;21901;-30
2023/05/29 13:18:19;;;;;;;25.62;19.45;;;24.30;69.30;;;;;;4672911;56;21010;-28
2023/05/29 13:23:20;;;;;;;25.35;19.70;;;24.30;69.40;;;;;;4664131;56;21022;-31
2023/05/29 13:28:21;;;;;;;24.90;21.10;;;24.30;69.40;;;;;;4656710;60;22165;-32
2023/05/29 13:33:22;;;;;;;26.55;22.30;;;24.40;69.40;;;;;;4668544;55;21498;-32
2023/05/29 13:38:23;;;;;;;25.98;20.37;;;24.30;69.40;;;;;;4735870;56;21054;-33
2023/05/29 13:43:25;;;;;;;24.27;21.25;;;24.20;69.50;;;;;;4658163;60;21054;-34
2023/05/29 13:48:26;;;;;;;25.58;21.95;;;24.10;69.70;;;;;;4661980;55;21382;-33
2023/05/29 13:53:27;;;;;;;24.75;21.15;;;24.10;69.70;;;;;;4699310;55;21959;-35
2023/05/29 13:58:28;;;;;;;22.55;20.15;;;24.10;69.70;;;;;;4681821;56;21153;-32
2023/05/29 14:03:28;;;;;;;24.58;20.95;;;24.00;70.20;;;;;;4665216;56;21110;-33
2023/05/29 14:08:29;;;;;;;25.25;21.02;;;24.00;69.60;;;;;;4679585;55;21098;-34
2023/05/29 14:13:30;;;;;;;23.23;19.98;;;24.00;69.60;;;;;;4701945;55;21584;-33
2023/05/29 14:18:31;;;;;;;24.70;21.27;;;24.00;69.50;;;;;;4659793;55;21030;-35
2023/05/29 14:23:32;;;;;;;23.65;20.55;;;24.00;69.50;;;;;;4796097;55;21167;-35
2023/05/29 14:28:36;;;;;;;21.70;19.12;;;24.00;69.60;;;;;;4678695;56;21046;-31
2023/05/29 14:33:37;;;;;;;24.05;20.85;;;24.00;69.30;;;;;;4680531;55;21533;-32
2023/05/29 14:38:38;;;;;;;23.33;20.80;;;24.10;69.30;;;;;;4697475;56;21113;-27
2023/05/29 14:43:42;;;;;;;22.13;19.50;;;24.10;69.20;;;;;;4673653;55;21083;-32
2023/05/29 14:48:44;;;;;;;23.90;19.95;;;24.10;69.10;;;;;;4659196;59;21579;-34
2023/05/29 14:53:45;;;;;;;21.75;19.12;;;24.10;69.10;;;;;;4730592;55;21512;-33
2023/05/29 14:58:47;;;;;;;22.62;20.15;;;24.10;68.90;;;;;;4664147;55;21006;-34
2023/05/29 15:03:48;;;;;;;22.05;19.65;;;24.10;69.10;;;;;;4703407;56;21476;-34
2023/05/29 15:08:50;;;;;;;24.80;20.48;;;24.00;69.10;;;;;;4664731;55;21149;-31
2023/05/29 15:13:51;;;;;;;22.60;20.23;;;24.00;69.30;;;;;;4726668;56;21576;-38
2023/05/29 15:18:52;;;;;;;23.87;20.98;;;24.00;69.30;;;;;;4659253;59;21098;-33
2023/05/29 15:23:53;;;;;;;21.50;19.20;;;24.00;69.40;;;;;;4715804;55;21053;-34
2023/05/29 15:28:54;;;;;;;21.85;19.62;;;24.00;69.30;;;;;;4731759;56;21067;-32
2023/05/29 15:33:55;;;;;;;22.73;20.35;;;24.00;69.30;;;;;;4734623;55;21102;-35
2023/05/29 15:38:55;;;;;;;24.02;20.23;;;24.00;69.30;;;;;;4660110;55;21061;-36
2023/05/29 15:43:56;;;;;;;21.95;19.73;;;23.90;69.20;;;;;;4661915;56;21054;-37
2023/05/29 15:48:57;;;;;;;21.98;19.70;;;24.00;69.90;;;;;;4715480;55;21522;-37
2023/05/29 15:53:59;;;;;;;22.95;19.87;;;24.00;69.90;;;;;;4671568;55;21010;-34
2023/05/29 15:59:00;;;;;;;21.87;19.65;;;24.00;69.20;;;;;;4827328;55;21533;-34
2023/05/29 16:04:02;;;;;;;22.02;19.23;;;24.00;69.10;;;;;;4790179;56;21102;-33
2023/05/29 16:09:03;;;;;;;21.40;19.10;;;24.00;69.20;;;;;;4743852;56;21049;-35
2023/05/29 16:14:05;;;;;;;21.87;19.65;;;24.00;69.10;;;;;;4686168;55;21560;-35
2023/05/29 16:19:06;;;;;;;21.52;19.27;;;23.90;69.10;;;;;;4661012;56;21461;-31
2023/05/29 16:24:07;;;;;;;22.02;19.70;;;24.00;69.10;;;;;;4786713;55;21027;-31
2023/05/29 16:29:08;;;;;;;22.80;20.50;;;24.00;69.10;;;;;;4717245;55;21038;-33
2023/05/29 16:34:09;;;;;;;22.15;19.85;;;24.00;69.10;;;;;;4671831;56;21030;-31
2023/05/29 16:39:10;;;;;;;21.85;19.55;;;23.90;69.00;;;;;;4671760;55;21034;-35
2023/05/29 16:44:11;;;;;;;20.75;18.60;;;24.00;69.00;;;;;;4659810;55;21556;-32
2023/05/29 16:49:12;;;;;;;21.80;19.40;;;24.00;69.00;;;;;;4704353;55;21042;-32
2023/05/29 16:54:13;;;;;;;22.20;19.80;;;23.90;69.00;;;;;;4704021;55;21497;-34
2023/05/29 16:59:16;;;;;;;21.87;19.65;;;24.00;69.00;;;;;;4659721;60;21556;-32
2023/05/29 17:04:16;;;;;;;21.98;19.65;;;24.00;69.00;;;;;;4760447;56;21453;-31
2023/05/29 17:09:18;;;;;;;21.30;19.10;;;23.90;69.00;;;;;;4665967;55;21090;-33
2023/05/29 17:14:19;;;;;;;22.27;19.90;;;23.90;69.00;;;;;;4753697;56;21465;-33
2023/05/29 17:19:20;;;;;;;20.52;18.48;;;23.90;68.90;;;;;;4661824;55;21121;-32
2023/05/29 17:24:21;;;;;;;20.52;18.27;;;23.90;69.00;;;;;;4736832;56;21078;-31
2023/05/29 17:29:21;;;;;;;22.70;20.42;;;24.00;68.90;;;;;;4704083;55;21093;-31
2023/05/29 17:34:22;;;;;;;19.60;17.52;;;24.00;68.90;;;;;;4750598;56;21042;-33
2023/05/29 17:39:23;;;;;;;20.35;18.25;;;24.00;69.00;;;;;;4753989;55;21094;-34
2023/05/29 17:44:25;;;;;;;21.27;19.05;;;24.00;68.90;;;;;;4659150;60;21014;-33
2023/05/29 17:49:26;;;;;;;21.35;19.12;;;23.90;68.80;;;;;;4658756;60;21061;-34
2023/05/29 17:54:27;;;;;;;20.92;18.75;;;23.90;68.80;;;;;;4752242;55;21026;-37
2023/05/29 17:59:35;;;;;;;20.52;18.42;;;23.90;68.80;;;;;;4759500;56;21014;-33
2023/05/29 18:04:36;;;;;;;18.80;16.90;;;23.90;68.80;;;;;;4752396;56;22305;-33
2023/05/29 18:09:37;;;;;;;20.37;18.27;;;23.90;68.70;;;;;;4805920;56;21483;-33
2023/05/29 18:14:38;;;;;;;20.92;18.83;;;23.90;68.70;;;;;;4676033;56;21439;-35
2023/05/29 18:19:40;;;;;;;19.70;17.70;;;23.90;68.70;;;;;;4659891;56;21784;-32
2023/05/29 18:24:41;;;;;;;19.65;17.75;;;23.90;68.70;;;;;;4706399;56;21532;-32
2023/05/29 18:29:42;;;;;;;19.85;17.85;;;23.90;68.70;;;;;;4659072;60;21370;-33
2023/05/29 18:34:43;;;;;;;20.30;18.20;;;23.90;68.70;;;;;;4667276;56;21868;-36
2023/05/29 18:39:43;;;;;;;20.08;18.08;;;23.90;68.70;;;;;;4740981;55;22032;-33
2023/05/29 18:44:44;;;;;;;20.15;18.15;;;23.90;68.70;;;;;;4665201;56;21049;-33
2023/05/29 18:49:45;;;;;;;19.58;17.58;;;23.90;68.70;;;;;;4659537;60;22053;-32
2023/05/29 18:54:46;;;;;;;19.92;17.92;;;23.90;68.70;;;;;;4659566;57;21560;-33
2023/05/29 18:59:49;;;;;;;20.05;17.92;;;23.90;68.70;;;;;;4659657;56;22257;-35
2023/05/29 19:04:53;;;;;;;18.85;16.98;;;23.90;68.70;;;;;;4730124;55;21595;-34
2023/05/29 19:09:55;;;;;;;19.58;17.50;;;23.90;68.60;;;;;;4658764;59;21034;-35
2023/05/29 19:14:56;;;;;;;19.42;17.37;;;23.90;68.60;;;;;;4659760;56;21593;-33
2023/05/29 19:19:57;;;;;;;20.08;17.92;;;23.90;68.60;;;;;;4659856;55;21524;-34
2023/05/29 19:25:00;;;;;;;17.58;15.88;;;23.90;68.60;;;;;;4790756;55;21064;-33
2023/05/29 19:30:01;;;;;;;17.98;16.23;;;23.90;68.60;;;;;;4696527;56;21556;-33
2023/05/29 19:35:05;;;;;;;19.33;17.48;;;23.90;68.60;;;;;;4776211;55;21138;-33
2023/05/29 19:40:07;;;;;;;19.02;17.10;;;23.90;68.60;;;;;;4682006;56;21505;-33
2023/05/29 19:45:10;;;;;;;18.52;16.62;;;23.90;68.50;;;;;;4715448;56;21058;-35
2023/05/29 19:50:13;;;;;;;18.77;16.95;;;23.90;68.50;;;;;;4752318;56;21089;-31
2023/05/29 19:55:14;;;;;;;18.90;17.10;;;23.90;68.50;;;;;;4715099;55;21497;-31
2023/05/29 20:00:17;;;;;;;18.17;16.48;;;23.90;68.50;;;;;;4880229;56;21059;-36
2023/05/29 20:05:17;;;;;;;18.60;16.80;;;23.90;68.50;;;;;;4892730;56;21434;-34
2023/05/29 20:10:18;;;;;;;18.00;16.25;;;23.90;68.40;;;;;;4661696;55;21367;-33
2023/05/29 20:15:19;;;;;;;17.42;15.75;;;23.90;68.40;;;;;;4727628;55;21137;-33
2023/05/29 20:20:20;;;;;;;18.10;16.30;;;23.90;68.40;;;;;;4675761;56;21014;-35
2023/05/29 20:25:23;;;;;;;17.40;15.65;;;23.90;68.40;;;;;;4696656;55;21528;-27
2023/05/29 20:30:24;;;;;;;17.23;15.55;;;23.90;68.40;;;;;;4752114;55;21628;-34
2023/05/29 20:35:25;;;;;;;17.37;15.68;;;23.90;68.30;;;;;;4689242;55;21103;-34
2023/05/29 20:40:26;;;;;;;16.25;14.65;;;23.90;68.30;;;;;;4703970;55;21512;-33
2023/05/29 20:45:27;;;;;;;17.27;15.57;;;23.90;68.30;;;;;;4679967;55;21106;-35
2023/05/29 20:50:28;;;;;;;17.17;15.48;;;23.90;68.40;;;;;;4680796;56;21109;-34
2023/05/29 20:55:28;;;;;;;17.80;16.00;;;23.90;68.20;;;;;;4749411;55;21097;-33
2023/05/29 21:00:30;;;;;;;17.17;15.43;;;23.90;68.30;;;;;;5128568;55;21137;-34
2023/05/29 21:05:30;;;;;;;16.87;14.98;;;23.80;68.20;;;;;;4712156;56;21023;-34
2023/05/29 21:10:31;;;;;;;17.23;15.63;;;23.90;68.20;;;;;;5127849;55;21435;-33
2023/05/29 21:15:32;;;;;;;17.45;15.75;;;23.90;68.20;;;;;;5127919;56;21932;-35
2023/05/29 21:20:33;;;;;;;17.42;15.68;;;23.90;68.10;;;;;;5128201;56;21181;-35
2023/05/29 21:25:34;;;;;;;17.42;15.63;;;23.80;68.10;;;;;;4954750;55;21070;-35
2023/05/29 21:30:35;;;;;;;15.70;14.30;;;23.80;68.20;;;;;;4824526;55;21018;-32
2023/05/29 21:41:44;;;;;;;16.27;14.70;;;23.80;68.10;;;;;;4912359;54;22461;-34
2023/05/29 21:46:45;;;;;;;16.40;14.80;;;23.90;68.20;;;;;;4868538;55;20998;-34
2023/05/29 21:51:46;;;;;;;16.92;15.23;;;23.90;68.10;;;;;;4743989;58;21520;-29
2023/05/29 21:56:46;;;;;;;15.77;13.85;;;23.90;68.10;;;;;;4743829;58;21472;-33
2023/05/29 22:01:48;;;;;;;16.87;15.15;;;23.90;68.10;;;;;;4795000;55;21527;-37
2023/05/29 22:06:52;;;;;;;16.33;14.73;;;23.90;68.20;;;;;;4761186;55;21076;-34
2023/05/29 22:11:53;;;;;;;16.62;14.93;;;23.80;68.10;;;;;;4751324;55;21487;-34
2023/05/29 22:16:54;;;;;;;16.75;15.15;;;23.80;68.10;;;;;;4789237;55;21484;-33
2023/05/29 22:21:55;;;;;;;16.10;14.50;;;23.80;68.10;;;;;;4972670;55;21459;-34
2023/05/29 22:26:56;;;;;;;16.25;14.73;;;23.80;68.10;;;;;;4744369;58;21002;-33
2023/05/29 22:31:57;;;;;;;16.33;14.73;;;23.90;68.10;;;;;;4873706;55;21056;-33
2023/05/29 22:36:57;;;;;;;16.08;14.52;;;23.90;68.10;;;;;;4794783;55;21131;-32
2023/05/29 22:41:58;;;;;;;16.33;14.73;;;23.80;68.10;;;;;;4798494;58;21008;-34
2023/05/29 22:46:59;;;;;;;14.50;13.10;;;23.80;68.10;;;;;;4812433;54;21539;-35
2023/05/29 22:52:00;;;;;;;15.15;13.75;;;23.80;68.10;;;;;;4914381;54;21072;-34
2023/05/29 22:57:03;;;;;;;15.02;13.45;;;23.80;68.10;;;;;;4796599;58;21537;-33
2023/05/29 23:02:05;;;;;;;14.85;13.45;;;23.90;68.10;;;;;;4796642;58;21534;-38
2023/05/29 23:07:06;;;;;;;14.60;13.20;;;23.90;68.20;;;;;;4796389;58;21438;-37
2023/05/29 23:12:09;;;;;;;15.32;13.93;;;23.80;68.00;;;;;;4808953;54;21087;-34
2023/05/29 23:17:09;;;;;;;14.20;12.85;;;23.90;68.10;;;;;;5072710;54;21474;-32
2023/05/29 23:22:11;;;;;;;15.60;14.10;;;23.90;68.10;;;;;;4879438;54;21039;-35
2023/05/29 23:27:12;;;;;;;13.93;12.63;;;23.90;68.10;;;;;;4796206;58;21607;-34
2023/05/29 23:32:13;;;;;;;13.98;12.68;;;23.90;68.10;;;;;;4845492;54;21035;-31
2023/05/29 23:37:14;;;;;;;15.35;13.85;;;23.80;68.10;;;;;;4795729;58;21051;-34
2023/05/29 23:42:15;;;;;;;14.55;13.15;;;23.90;68.10;;;;;;4821777;54;21052;-32
2023/05/29 23:47:16;;;;;;;14.00;12.70;;;23.90;68.00;;;;;;4865425;54;21454;-31
2023/05/29 23:52:17;;;;;;;14.10;12.80;;;23.90;68.10;;;;;;4836995;54;21034;-35
2023/05/29 23:57:18;;;;;;;14.32;12.82;;;23.90;68.00;;;;;;4813008;54;21012;-36
